Time;durP1;ratioP1;P1;durP2;ratioP2;P2;SDS_P1;SDS_P2;PMS_P1;PMS_P2;Temp;Humidity;BMP_temperature;BMP_pressure;BME280_temperature;BME280_humidity;BME280_pressure;Samples;Min_cycle;Max_cycle;Signal;HPM_P1;HPM_P2
2022/01/02 07:40:55;;;;;;;3.95;1.77;;;;;;;2.43;46.03;99200.88;3325441;29;20580;-73
2022/01/02 07:42:55;;;;;;;1.65;1.10;;;;;;;2.48;46.04;99198.63;3324090;29;20111;-73
2022/01/02 07:45:03;;;;;;;2.75;1.25;;;;;;;2.61;46.62;99206.91;3323758;29;20084;-71
2022/01/02 07:47:06;;;;;;;2.03;1.30;;;;;;;2.72;47.03;99215.53;3331250;29;20053;-72
2022/01/02 07:49:06;;;;;;;2.45;1.23;;;;;;;2.80;46.98;99207.66;3330009;29;20566;-72
2022/01/02 07:51:07;;;;;;;3.53;1.35;;;;;;;2.93;46.97;99217.78;3325026;29;20077;-72
2022/01/02 07:53:07;;;;;;;1.67;1.20;;;;;;;3.01;46.94;99221.25;3328521;29;20540;-72
2022/01/02 07:55:07;;;;;;;3.00;1.30;;;;;;;3.10;47.20;99221.28;3324513;29;20081;-74
2022/01/02 07:57:07;;;;;;;1.73;1.20;;;;;;;3.14;46.85;99222.63;3324194;29;20102;-71
2022/01/02 07:59:08;;;;;;;1.45;1.35;;;;;;;3.25;46.87;99222.34;3334390;29;20093;-74
2022/01/02 08:01:07;;;;;;;2.08;1.83;;;;;;;3.36;46.92;99232.59;3336255;29;20071;-72
2022/01/02 08:03:09;;;;;;;1.70;1.02;;;;;;;3.46;46.85;99238.56;3325038;29;20529;-72
2022/01/02 08:05:10;;;;;;;2.70;1.50;;;;;;;3.57;46.74;99236.63;3328177;29;20146;-73
2022/01/02 08:07:11;;;;;;;2.03;1.20;;;;;;;3.63;46.67;99230.69;3328292;29;20505;-72
2022/01/02 08:09:12;;;;;;;1.85;1.25;;;;;;;3.73;46.43;99234.00;3317399;29;20057;-72
2022/01/02 08:11:17;;;;;;;1.70;1.42;;;;;;;3.79;46.60;99233.34;3334325;29;20125;-74
2022/01/02 08:13:16;;;;;;;2.45;1.20;;;;;;;3.88;46.29;99235.03;3327518;29;20532;-71
2022/01/02 08:15:16;;;;;;;1.80;1.40;;;;;;;3.94;46.33;99239.63;3327486;29;20137;-71
2022/01/02 08:17:16;;;;;;;2.25;1.00;;;;;;;4.03;46.55;99239.69;3331240;29;20525;-78
2022/01/02 08:19:15;;;;;;;2.38;1.35;;;;;;;4.21;47.25;99242.13;3331886;29;20089;-76
2022/01/02 08:21:15;;;;;;;1.60;1.50;;;;;;;4.45;46.96;99250.06;3332342;29;20060;-77
2022/01/02 08:23:16;;;;;;;4.13;1.33;;;;;;;4.62;47.17;99255.31;3335097;29;20100;-76
2022/01/02 08:25:17;;;;;;;2.83;1.33;;;;;;;4.72;47.04;99253.31;3342895;29;20061;-76
2022/01/02 08:27:18;;;;;;;1.65;1.30;;;;;;;4.76;46.85;99242.25;3326208;29;20584;-76
2022/01/02 08:29:19;;;;;;;2.15;1.73;;;;;;;4.72;46.63;99243.56;3326728;29;20099;-77
2022/01/02 08:31:19;;;;;;;2.97;1.10;;;;;;;4.72;46.71;99242.75;3331030;29;20566;-76
2022/01/02 08:33:20;;;;;;;2.35;1.25;;;;;;;4.74;46.99;99249.50;3330419;29;20530;-75
2022/01/02 08:35:19;;;;;;;3.28;1.55;;;;;;;4.63;46.83;99226.13;3331170;29;20504;-77
2022/01/02 08:37:19;;;;;;;1.77;1.00;;;;;;;4.63;46.87;99238.50;3335603;29;20117;-78
2022/01/02 08:39:18;;;;;;;2.50;1.00;;;;;;;4.66;46.83;99249.53;3337120;29;20053;-76
2022/01/02 08:41:19;;;;;;;2.63;1.77;;;;;;;4.66;47.05;99249.53;3350652;29;20052;-75
2022/01/02 08:43:18;;;;;;;1.95;1.30;;;;;;;4.66;47.18;99254.00;3346315;29;20060;-77
2022/01/02 08:45:18;;;;;;;2.13;1.20;;;;;;;4.61;47.29;99256.31;3353085;29;20590;-75
2022/01/02 08:47:17;;;;;;;2.42;1.45;;;;;;;4.52;47.43;99243.13;3338481;29;20144;-76
2022/01/02 08:49:17;;;;;;;2.08;1.33;;;;;;;4.52;47.47;99251.03;3351573;29;20051;-73
2022/01/02 08:51:16;;;;;;;2.58;1.13;;;;;;;4.49;47.25;99243.47;3352709;29;20068;-79
2022/01/02 08:53:16;;;;;;;2.85;0.98;;;;;;;4.51;47.37;99253.84;3337946;29;20282;-76
2022/01/02 08:55:15;;;;;;;1.10;0.93;;;;;;;4.48;47.42;99252.34;3349351;29;20104;-72
2022/01/02 08:57:14;;;;;;;2.50;1.23;;;;;;;4.48;47.39;99252.34;3354844;29;20185;-74
2022/01/02 08:59:14;;;;;;;1.20;1.10;;;;;;;4.50;47.12;99239.00;3351671;29;20531;-72
2022/01/02 09:01:13;;;;;;;4.22;1.55;;;;;;;4.52;47.17;99237.03;3351788;29;20060;-75
2022/01/02 09:03:12;;;;;;;12.65;1.30;;;;;;;4.49;46.83;99232.06;3351404;29;20114;-73
2022/01/02 09:05:12;;;;;;;2.80;1.10;;;;;;;4.53;47.04;99247.41;3351295;29;20053;-72
2022/01/02 09:07:11;;;;;;;1.63;1.38;;;;;;;4.56;47.00;99246.25;3358913;29;20409;-73
2022/01/02 09:09:11;;;;;;;1.48;1.13;;;;;;;4.58;46.95;99252.19;3364604;29;20068;-72
2022/01/02 09:11:10;;;;;;;2.17;1.30;;;;;;;4.53;46.87;99223.66;3353062;29;20080;-73
2022/01/02 09:13:09;;;;;;;1.70;1.27;;;;;;;4.60;46.66;99242.28;3351469;29;20421;-73
2022/01/02 09:15:09;;;;;;;3.28;1.42;;;;;;;4.64;46.49;99246.22;3351671;29;20528;-73
2022/01/02 09:17:08;;;;;;;1.27;1.02;;;;;;;4.65;46.55;99239.16;3312276;29;20072;-72
2022/01/02 09:19:08;;;;;;;3.17;1.10;;;;;;;4.66;46.26;99238.16;3338878;29;20049;-72
2022/01/02 09:21:07;;;;;;;1.45;1.15;;;;;;;4.65;46.22;99237.34;3338646;29;20486;-72
2022/01/02 09:23:07;;;;;;;2.45;1.33;;;;;;;4.67;46.35;99230.06;3338098;29;20586;-74
2022/01/02 09:25:08;;;;;;;2.90;1.85;;;;;;;4.65;46.52;99226.78;3338804;29;20060;-71
2022/01/02 09:27:08;;;;;;;2.75;1.20;;;;;;;4.64;46.44;99234.84;3336966;29;20525;-73
2022/01/02 09:29:08;;;;;;;4.13;1.17;;;;;;;4.59;46.37;99227.44;3350588;29;20148;-72
2022/01/02 09:31:07;;;;;;;1.27;1.17;;;;;;;4.59;46.23;99225.63;3325026;29;20130;-72
2022/01/02 09:33:08;;;;;;;3.85;1.35;;;;;;;4.51;46.27;99220.34;3336540;29;20048;-73
2022/01/02 09:35:09;;;;;;;5.95;1.20;;;;;;;4.53;46.23;99223.66;3351298;29;20056;-73
2022/01/02 09:37:08;;;;;;;2.45;1.15;;;;;;;4.50;45.98;99218.72;3351247;29;20140;-71
2022/01/02 09:39:08;;;;;;;2.85;1.25;;;;;;;4.48;45.82;99212.78;3363275;29;20112;-72
2022/01/02 09:41:08;;;;;;;3.72;1.30;;;;;;;4.46;46.16;99220.03;3364216;29;20084;-77
2022/01/02 09:43:07;;;;;;;5.22;1.50;;;;;;;4.43;46.12;99217.72;3357683;29;20137;-76
2022/01/02 09:45:07;;;;;;;2.20;1.48;;;;;;;4.43;46.21;99215.09;3350988;29;20156;-73
2022/01/02 09:47:09;;;;;;;5.43;2.15;;;;;;;4.43;47.24;99212.44;3349780;29;20065;-73
2022/01/02 09:49:10;;;;;;;5.50;1.85;;;;;;;4.47;47.59;99207.69;3336704;29;20532;-75
2022/01/02 09:51:10;;;;;;;3.88;1.58;;;;;;;4.51;47.85;99208.97;3338351;29;20194;-74
2022/01/02 09:53:10;;;;;;;4.63;2.08;;;;;;;4.48;48.26;99202.22;3323608;29;20106;-74
2022/01/02 09:54:51;;;;;;;3.47;1.60;;;;;;;4.56;48.26;99212.75;3338748;29;20734;-73
2022/01/02 09:56:32;;;;;;;2.95;1.38;;;;;;;4.56;48.54;99207.47;3338662;29;20190;-73
2022/01/02 09:58:14;;;;;;;2.40;2.08;;;;;;;4.53;48.79;99214.91;3340085;29;20114;-73
2022/01/02 09:59:56;;;;;;;6.80;1.90;;;;;;;4.57;49.06;99219.69;3350251;29;20545;-76
2022/01/02 10:01:37;;;;;;;2.40;1.63;;;;;;;4.55;48.86;99219.03;3350770;29;20497;-72
2022/01/02 10:03:18;;;;;;;4.32;1.58;;;;;;;4.55;48.58;99226.13;3350718;29;20042;-73
2022/01/02 10:05:02;;;;;;;7.70;2.10;;;;;;;4.57;48.63;99227.63;3350734;29;20066;-72
2022/01/02 10:06:48;;;;;;;2.53;1.55;;;;;;;4.61;48.59;99241.28;3350902;29;20052;-74
2022/01/02 10:08:31;;;;;;;3.92;2.55;;;;;;;4.63;48.83;99241.13;3350629;29;20077;-72
2022/01/02 10:10:13;;;;;;;5.55;1.70;;;;;;;4.61;48.78;99235.19;3349359;29;20077;-72
2022/01/02 10:12:16;;;;;;;3.10;1.55;;;;;;;4.59;48.57;99243.25;3350653;29;20552;-71
2022/01/02 10:14:05;;;;;;;;;;;;;;;4.77;48.68;99241.25;3334894;29;20058;-73
2022/01/02 10:15:47;;;;;;;5.57;2.00;;;;;;;4.68;48.57;99244.91;3345781;29;19924;-76
2022/01/02 10:17:29;;;;;;;2.80;1.60;;;;;;;4.63;48.79;99249.06;3349825;29;20041;-72
2022/01/02 10:19:29;;;;;;;1.65;1.23;;;;;;;4.61;48.54;99246.56;3349088;29;20053;-72
2022/01/02 10:21:11;;;;;;;1.55;1.35;;;;;;;4.57;48.12;99255.81;3350438;29;20587;-72
2022/01/02 10:23:11;;;;;;;2.60;2.30;;;;;;;4.58;48.74;99247.72;3350326;29;20064;-73
2022/01/02 10:24:52;;;;;;;2.08;1.17;;;;;;;4.55;48.71;99250.69;3350059;29;20140;-73
2022/01/02 10:26:32;;;;;;;4.45;1.85;;;;;;;4.52;48.51;99251.03;3336131;29;20560;-72
2022/01/02 10:28:21;;;;;;;2.90;1.40;;;;;;;4.53;48.02;99255.31;3347454;29;20378;-76
2022/01/02 10:30:03;;;;;;;2.47;1.50;;;;;;;4.54;48.23;99254.34;3349924;29;20101;-75
2022/01/02 10:31:44;;;;;;;3.70;1.65;;;;;;;4.58;48.30;99258.28;3338693;29;20046;-73
2022/01/02 10:33:26;;;;;;;4.45;1.42;;;;;;;4.55;48.03;99260.44;3347750;29;20137;-75
2022/01/02 10:35:24;;;;;;;2.88;1.42;;;;;;;4.58;48.01;99249.53;3347728;29;20509;-73
2022/01/02 10:37:05;;;;;;;3.47;1.52;;;;;;;4.55;47.92;99252.53;3350292;29;20151;-72
2022/01/02 10:39:07;;;;;;;5.65;1.23;;;;;;;4.58;47.44;99265.38;3350309;29;20041;-73
2022/01/02 10:40:48;;;;;;;;;;;;;;;4.68;47.24;99263.38;3350843;29;20547;-72
2022/01/02 10:42:29;;;;;;;1.75;1.30;;;;;;;4.63;47.17;99270.16;3349501;29;19915;-75
2022/01/02 10:44:33;;;;;;;3.03;1.30;;;;;;;4.65;47.44;99270.84;3322789;29;20097;-74
2022/01/02 10:46:13;;;;;;;3.55;1.40;;;;;;;4.55;47.39;99255.97;3349768;29;20402;-73
2022/01/02 10:47:54;;;;;;;1.58;1.38;;;;;;;4.68;47.67;99273.94;3349852;29;20101;-72
2022/01/02 10:49:48;;;;;;;3.13;1.48;;;;;;;4.77;48.40;99275.56;3335753;29;20034;-72
2022/01/02 10:51:28;;;;;;;2.65;1.92;;;;;;;4.81;47.87;99274.25;3334642;29;20050;-72
2022/01/02 10:53:15;;;;;;;1.63;1.38;;;;;;;4.86;47.35;99275.59;3334127;29;20425;-72
2022/01/02 10:54:58;;;;;;;3.58;1.63;;;;;;;4.94;47.31;99280.84;3347991;29;20086;-71
2022/01/02 10:56:39;;;;;;;3.05;1.60;;;;;;;5.01;47.11;99289.75;3348935;29;20101;-72
2022/01/02 10:58:20;;;;;;;2.33;1.70;;;;;;;5.04;46.94;99284.13;3336046;29;20045;-71
2022/01/02 11:00:01;;;;;;;5.30;1.55;;;;;;;5.09;48.14;99295.00;3346597;29;20071;-74
2022/01/02 11:01:42;;;;;;;1.38;1.20;;;;;;;5.18;48.67;99290.50;3342398;29;20045;-70
2022/01/02 11:03:26;;;;;;;2.33;1.80;;;;;;;5.24;47.84;99290.66;3337855;29;20042;-72
2022/01/02 11:05:10;;;;;;;2.92;1.42;;;;;;;5.18;47.24;99286.03;3345438;29;20128;-71
2022/01/02 11:06:51;;;;;;;1.77;1.30;;;;;;;5.06;46.84;99290.06;3339199;29;20101;-71
2022/01/02 11:08:34;;;;;;;2.78;1.50;;;;;;;4.91;46.46;99289.94;3334268;29;20528;-71
2022/01/02 11:10:17;;;;;;;3.33;1.45;;;;;;;4.75;46.43;99290.78;3347794;29;20132;-71
2022/01/02 11:11:58;;;;;;;1.40;1.10;;;;;;;4.60;46.24;99295.06;3349469;29;20045;-71
2022/01/02 11:13:39;;;;;;;1.10;1.00;;;;;;;4.46;46.27;99287.81;3349721;29;20471;-71
2022/01/02 11:15:22;;;;;;;2.45;1.10;;;;;;;4.31;46.00;99291.13;3349693;29;20057;-71
2022/01/02 11:17:03;;;;;;;1.13;1.02;;;;;;;4.17;45.93;99281.19;3349642;29;20045;-72
2022/01/02 11:18:46;;;;;;;1.50;1.35;;;;;;;4.08;45.79;99296.19;3336172;29;20049;-72
2022/01/02 11:20:29;;;;;;;1.25;1.15;;;;;;;4.01;46.06;99294.38;3346517;29;20057;-72
2022/01/02 11:22:14;;;;;;;2.22;1.10;;;;;;;3.92;46.00;99278.53;3349104;29;20048;-72
2022/01/02 11:24:18;;;;;;;3.33;1.33;;;;;;;3.86;45.98;99268.63;3335555;29;20061;-71
2022/01/02 11:25:59;;;;;;;2.33;1.23;;;;;;;3.80;45.82;99279.00;3342919;29;20053;-72
2022/01/02 11:28:00;;;;;;;1.20;1.10;;;;;;;3.76;45.82;99270.59;3346570;29;20041;-70
2022/01/02 11:29:41;;;;;;;1.40;1.30;;;;;;;3.65;45.68;99276.16;3337168;29;20050;-71
2022/01/02 11:31:31;;;;;;;1.30;1.20;;;;;;;3.60;45.89;99284.53;3336114;29;20053;-71
2022/01/02 11:33:13;;;;;;;1.27;1.08;;;;;;;3.54;45.81;99273.81;3343629;29;20037;-71
2022/01/02 11:34:55;;;;;;;2.40;1.20;;;;;;;3.48;45.83;99278.75;3349283;29;20114;-69
2022/01/02 11:36:36;;;;;;;;;;;;;;;3.59;45.94;99272.38;3323401;29;20042;-71
2022/01/02 11:38:19;;;;;;;1.38;1.08;;;;;;;3.47;45.89;99269.19;3334427;29;20042;-71
2022/01/02 11:40:03;;;;;;;1.63;1.23;;;;;;;3.46;45.63;99272.81;3336742;29;20065;-71
2022/01/02 11:41:51;;;;;;;1.38;1.20;;;;;;;3.42;46.07;99276.75;3323612;29;20190;-71
2022/01/02 11:43:35;;;;;;;1.52;1.10;;;;;;;3.39;45.75;99277.06;3335431;29;20061;-71
2022/01/02 11:45:24;;;;;;;1.23;1.13;;;;;;;3.37;45.78;99275.56;3345785;29;20037;-71
2022/01/02 11:47:05;;;;;;;2.42;1.15;;;;;;;3.30;45.90;99274.53;3336123;29;20049;-72
2022/01/02 11:49:04;;;;;;;1.33;1.17;;;;;;;3.33;45.88;99282.13;3346987;29;20417;-72
2022/01/02 11:50:45;;;;;;;4.28;2.33;;;;;;;3.24;45.72;99283.91;3348352;29;20045;-71
2022/01/02 11:52:27;;;;;;;1.42;1.23;;;;;;;3.21;45.82;99285.03;3349535;29;20045;-72
2022/01/02 11:56:31;;;;;;;1.73;1.20;;;;;;;3.15;45.71;99279.56;3350157;29;20056;-71
2022/01/02 11:58:12;;;;;;;1.42;1.33;;;;;;;3.11;45.86;99289.59;3357996;29;20042;-71
2022/01/02 11:59:55;;;;;;;1.92;1.20;;;;;;;3.04;45.92;99286.75;3364486;29;20061;-73
2022/01/02 12:01:47;;;;;;;2.47;1.30;;;;;;;3.03;45.58;99287.75;3366460;29;20105;-71
2022/01/02 12:03:46;;;;;;;1.67;1.10;;;;;;;3.00;45.85;99293.31;3352331;29;20026;-71
2022/01/02 12:05:27;;;;;;;3.20;1.45;;;;;;;2.92;45.94;99295.91;3364393;29;20025;-72
2022/01/02 12:07:07;;;;;;;1.70;1.33;;;;;;;2.87;45.76;99300.00;3351609;29;20063;-71
2022/01/02 12:08:52;;;;;;;3.53;1.50;;;;;;;2.84;45.81;99299.31;3340270;29;20114;-70
2022/01/02 12:10:38;;;;;;;2.05;1.30;;;;;;;2.81;45.70;99299.63;3348745;29;20415;-71
2022/01/02 12:12:18;;;;;;;1.40;1.30;;;;;;;2.79;45.80;99298.13;3352207;29;20096;-70
2022/01/02 12:14:10;;;;;;;1.88;1.30;;;;;;;2.78;46.08;99292.03;3338347;29;20034;-71
2022/01/02 12:15:55;;;;;;;1.52;1.38;;;;;;;2.76;45.98;99303.69;3351249;29;20045;-70
2022/01/02 12:18:08;;;;;;;3.90;1.35;;;;;;;2.77;45.89;99295.66;3352322;29;20049;-72
2022/01/02 12:20:04;;;;;;;2.95;1.58;;;;;;;2.75;45.90;99304.69;3339682;29;20053;-69
2022/01/02 12:22:07;;;;;;;1.45;1.30;;;;;;;2.71;45.99;99304.16;3339563;29;20556;-71
2022/01/02 12:23:50;;;;;;;1.60;1.50;;;;;;;2.66;45.78;99313.47;3339337;29;20073;-71
2022/01/02 12:25:31;;;;;;;1.35;1.17;;;;;;;2.60;45.96;99307.03;3351104;29;20057;-72
2022/01/02 12:27:16;;;;;;;1.23;1.13;;;;;;;2.59;45.91;99302.75;3338461;29;20211;-71
2022/01/02 12:28:59;;;;;;;1.48;1.20;;;;;;;2.56;46.04;99305.69;3349563;29;20176;-71
2022/01/02 12:30:40;;;;;;;4.35;1.88;;;;;;;2.55;45.85;99307.47;3351487;29;20155;-70
2022/01/02 12:32:21;;;;;;;1.95;1.63;;;;;;;2.53;45.93;99303.34;3341915;29;20041;-72
2022/01/02 12:34:18;;;;;;;2.53;1.52;;;;;;;2.55;45.89;99323.25;3350797;29;20057;-71
2022/01/02 12:36:16;;;;;;;1.58;1.23;;;;;;;2.54;46.05;99313.72;3339213;29;20061;-71
2022/01/02 12:38:03;;;;;;;1.55;1.45;;;;;;;2.54;46.16;99323.44;3343347;29;20053;-71
2022/01/02 12:39:45;;;;;;;1.65;1.50;;;;;;;2.48;46.01;99319.59;3351793;29;20068;-71
2022/01/02 12:41:28;;;;;;;2.00;1.45;;;;;;;2.46;45.92;99315.47;3338202;29;20186;-72
2022/01/02 12:43:10;;;;;;;1.50;1.40;;;;;;;2.38;45.74;99296.00;3349514;29;20045;-71
2022/01/02 12:44:50;;;;;;;2.50;1.60;;;;;;;2.39;45.87;99323.13;3351476;29;20045;-70
2022/01/02 12:46:43;;;;;;;1.30;1.20;;;;;;;2.38;45.87;99313.59;3351080;29;20520;-70
2022/01/02 12:48:34;;;;;;;2.10;1.65;;;;;;;2.35;45.97;99320.00;3347424;29;20041;-70
2022/01/02 12:50:22;;;;;;;1.80;1.30;;;;;;;2.31;45.80;99328.31;3351418;29;20065;-70
2022/01/02 12:52:04;;;;;;;1.55;1.35;;;;;;;2.32;45.80;99319.44;3351369;29;20045;-71
2022/01/02 12:54:07;;;;;;;1.92;1.25;;;;;;;2.32;46.04;99322.94;3351607;29;20205;-71
2022/01/02 12:55:57;;;;;;;1.45;1.35;;;;;;;2.31;45.85;99328.31;3337864;29;20121;-71
2022/01/02 12:57:38;;;;;;;1.55;1.17;;;;;;;2.26;45.82;99335.84;3349238;29;20069;-71
2022/01/02 12:59:29;;;;;;;1.92;1.40;;;;;;;2.25;45.80;99328.94;3351658;29;20509;-72
2022/01/02 13:01:11;;;;;;;2.08;1.40;;;;;;;2.18;45.73;99334.78;3351713;29;20101;-71
2022/01/02 13:02:53;;;;;;;2.45;1.13;;;;;;;2.16;45.85;99336.72;3351680;29;20052;-70
2022/01/02 13:04:43;;;;;;;1.92;1.55;;;;;;;2.15;45.82;99342.97;3350691;29;20113;-70
2022/01/02 13:06:25;;;;;;;2.08;1.40;;;;;;;2.14;45.84;99349.22;3348679;29;20056;-70
2022/01/02 13:08:06;;;;;;;1.40;1.30;;;;;;;2.13;45.94;99342.28;3351056;29;20042;-71
2022/01/02 13:09:50;;;;;;;2.00;1.38;;;;;;;2.12;46.04;99327.50;3351493;29;20527;-70
2022/01/02 13:11:37;;;;;;;1.95;1.70;;;;;;;2.11;45.84;99336.34;3349567;29;20046;-71
2022/01/02 13:13:31;;;;;;;2.10;1.50;;;;;;;2.11;46.08;99325.81;3355802;29;20428;-71
2022/01/02 13:15:13;;;;;;;2.70;1.50;;;;;;;2.10;46.00;99336.50;3352850;29;20060;-70
2022/01/02 13:16:54;;;;;;;2.88;1.50;;;;;;;2.09;45.79;99329.56;3351982;29;20473;-70
2022/01/02 13:18:39;;;;;;;2.45;1.52;;;;;;;2.09;46.14;99324.31;3344541;29;20038;-71
2022/01/02 13:20:43;;;;;;;3.13;1.48;;;;;;;2.04;46.07;99316.91;3361946;29;20481;-70
2022/01/02 13:22:26;;;;;;;2.45;1.33;;;;;;;2.08;46.09;99318.25;3350783;29;20105;-71
2022/01/02 13:24:42;;;;;;;2.63;1.55;;;;;;;2.13;46.33;99320.44;3338302;29;20038;-70
2022/01/02 13:26:24;;;;;;;1.33;1.10;;;;;;;2.08;46.06;99320.88;3286550;30;20547;-72
2022/01/02 13:28:11;;;;;;;1.52;1.42;;;;;;;2.03;46.03;99307.34;3304571;29;20055;-71
2022/01/02 13:30:07;;;;;;;1.48;1.38;;;;;;;2.11;46.18;99312.69;3350638;29;20045;-70
2022/01/02 13:31:50;;;;;;;1.90;1.38;;;;;;;2.07;46.15;99311.34;3351712;29;20049;-71
2022/01/02 13:33:35;;;;;;;3.38;1.35;;;;;;;2.07;46.21;99305.25;3351061;29;20038;-71
2022/01/02 13:35:20;;;;;;;1.52;1.30;;;;;;;2.08;46.19;99314.78;3350402;29;20044;-70
2022/01/02 13:37:02;;;;;;;2.17;1.45;;;;;;;2.09;46.14;99304.13;3351087;29;20037;-69
2022/01/02 13:39:00;;;;;;;1.35;1.10;;;;;;;2.13;46.14;99305.47;3351145;29;20045;-72
2022/01/02 13:40:41;;;;;;;2.25;1.50;;;;;;;2.06;46.20;99293.91;3351671;29;20509;-71
2022/01/02 13:42:38;;;;;;;5.07;1.90;;;;;;;2.11;46.09;99302.16;3352106;29;20462;-70
2022/01/02 13:44:23;;;;;;;1.80;1.30;;;;;;;2.12;45.95;99308.28;3351802;29;20053;-71
2022/01/02 13:46:04;;;;;;;1.88;1.33;;;;;;;2.09;45.96;99306.78;3351086;29;20041;-72
2022/01/02 13:47:45;;;;;;;1.55;1.30;;;;;;;2.10;46.06;99308.41;3351817;29;20045;-73
2022/01/02 13:49:52;;;;;;;1.42;1.25;;;;;;;2.16;46.24;99305.16;3351738;29;20048;-71
2022/01/02 13:51:33;;;;;;;1.80;1.52;;;;;;;2.13;46.07;99308.09;3344284;29;20585;-71
2022/01/02 13:53:18;;;;;;;1.48;1.05;;;;;;;2.13;45.85;99313.38;3325863;29;20095;-70
2022/01/02 13:55:10;;;;;;;4.00;1.92;;;;;;;2.15;45.89;99308.78;3337491;29;20049;-70
2022/01/02 13:56:58;;;;;;;1.33;1.23;;;;;;;2.13;45.77;99313.38;3344942;29;20381;-71
2022/01/02 13:58:40;;;;;;;1.65;1.42;;;;;;;2.11;46.00;99312.69;3338111;29;20049;-71
2022/01/02 14:00:23;;;;;;;1.80;1.20;;;;;;;2.09;45.88;99306.78;3348949;29;20045;-71
2022/01/02 14:02:04;;;;;;;7.07;1.60;;;;;;;2.10;45.92;99310.22;3351427;29;20438;-71
2022/01/02 14:03:45;;;;;;;2.20;1.40;;;;;;;2.07;45.95;99308.72;3351656;29;20087;-71
2022/01/02 14:05:43;;;;;;;1.48;1.38;;;;;;;2.10;46.10;99299.69;3351518;29;20137;-72
2022/01/02 14:07:29;;;;;;;1.77;1.38;;;;;;;2.06;45.84;99301.78;3350218;29;20045;-71
2022/01/02 14:09:11;;;;;;;2.47;1.30;;;;;;;2.06;45.96;99306.22;3351530;29;20057;-72
2022/01/02 14:11:08;;;;;;;1.63;1.38;;;;;;;2.10;45.98;99302.34;3350816;29;20085;-73
2022/01/02 14:12:56;;;;;;;4.55;1.60;;;;;;;2.08;46.02;99312.16;3351574;29;20114;-74
2022/01/02 14:14:49;;;;;;;3.58;1.30;;;;;;;2.02;45.82;99300.44;3351302;29;20065;-71
2022/01/02 14:18:29;;;;;;;1.77;1.20;;;;;;;2.03;45.83;99304.72;3350887;29;20086;-71
2022/01/02 14:20:11;;;;;;;1.55;1.45;;;;;;;1.99;46.11;99303.38;3351155;29;20048;-71
2022/01/02 14:21:51;;;;;;;1.15;1.05;;;;;;;1.99;45.89;99298.13;3358979;29;20045;-71
2022/01/02 14:23:32;;;;;;;1.35;0.98;;;;;;;1.98;45.72;99296.47;3364176;29;20044;-70
2022/01/02 14:25:15;;;;;;;2.40;1.30;;;;;;;1.96;45.97;99304.50;3363760;29;20053;-70
2022/01/02 14:26:56;;;;;;;1.50;1.05;;;;;;;1.97;45.77;99300.06;3350710;29;20057;-70
2022/01/02 14:28:36;;;;;;;1.50;1.40;;;;;;;1.98;45.68;99299.09;3332081;29;20050;-71
2022/01/02 14:30:18;;;;;;;1.80;1.25;;;;;;;1.98;45.60;99304.34;3346741;29;20042;-71
2022/01/02 14:31:59;;;;;;;2.70;1.42;;;;;;;1.98;45.54;99306.16;3351117;29;20485;-71
2022/01/02 14:33:40;;;;;;;0.98;0.98;;;;;;;1.96;45.68;99308.91;3351100;29;20053;-71
2022/01/02 14:35:21;;;;;;;1.98;1.15;;;;;;;1.96;45.59;99308.91;3350388;29;20082;-70
2022/01/02 14:37:03;;;;;;;2.58;1.42;;;;;;;1.97;45.46;99300.06;3350995;29;20343;-72
2022/01/02 14:38:43;;;;;;;1.58;1.13;;;;;;;1.96;45.59;99301.03;3351137;29;20073;-74
2022/01/02 14:40:24;;;;;;;3.50;1.17;;;;;;;1.97;45.66;99310.59;3350816;29;20065;-70
2022/01/02 14:42:08;;;;;;;1.80;1.33;;;;;;;1.94;45.55;99305.63;3336248;29;20053;-72
2022/01/02 14:43:49;;;;;;;;;;;;;;;2.07;45.58;99298.19;3349216;29;20053;-70
2022/01/02 14:45:30;;;;;;;4.70;1.33;;;;;;;2.00;45.52;99310.28;3351245;29;19995;-71
2022/01/02 14:47:13;;;;;;;1.48;1.27;;;;;;;1.94;45.45;99292.50;3351031;29;20145;-72
2022/01/02 14:48:54;;;;;;;1.65;1.27;;;;;;;1.99;45.54;99307.78;3351138;29;20045;-71
2022/01/02 14:50:35;;;;;;;3.05;0.90;;;;;;;1.98;45.53;99300.88;3351134;29;20438;-69
2022/01/02 14:52:17;;;;;;;2.28;1.67;;;;;;;1.94;45.43;99295.13;3350901;29;20076;-71
2022/01/02 14:53:59;;;;;;;;;;;;;;;2.07;45.62;99300.81;3346696;29;20049;-70
2022/01/02 14:55:43;;;;;;;2.08;1.33;;;;;;;2.00;45.53;99299.78;3349947;29;20027;-72
2022/01/02 14:57:25;;;;;;;4.72;1.40;;;;;;;1.98;45.59;99295.63;3350088;29;20466;-71
2022/01/02 14:59:08;;;;;;;1.30;1.20;;;;;;;1.96;45.67;99298.41;3349423;29;20561;-71
2022/01/02 15:00:49;;;;;;;2.08;1.17;;;;;;;1.94;45.72;99292.50;3324547;29;20042;-70
2022/01/02 15:02:30;;;;;;;2.33;1.40;;;;;;;1.94;45.77;99295.94;3345466;29;20046;-71
2022/01/02 15:04:11;;;;;;;1.30;1.20;;;;;;;1.91;45.73;99291.00;3349966;29;20089;-71
2022/01/02 15:05:53;;;;;;;1.25;1.15;;;;;;;1.94;45.66;99303.81;3341708;29;20045;-72
2022/01/02 15:07:33;;;;;;;3.05;1.63;;;;;;;1.93;45.84;99294.25;3324062;29;20035;-70
2022/01/02 15:09:14;;;;;;;1.88;1.40;;;;;;;1.90;45.74;99293.75;3335038;29;20054;-74
2022/01/02 15:10:55;;;;;;;1.75;1.13;;;;;;;1.94;45.68;99297.75;3337952;29;20077;-72
2022/01/02 15:12:37;;;;;;;3.10;1.00;;;;;;;1.93;45.71;99293.44;3345648;29;20041;-72
2022/01/02 15:14:17;;;;;;;1.75;1.38;;;;;;;1.94;45.60;99293.31;3349934;29;20484;-73
2022/01/02 15:15:58;;;;;;;1.13;1.05;;;;;;;1.89;45.96;99282.41;3335886;29;20038;-72
2022/01/02 15:17:39;;;;;;;1.23;1.02;;;;;;;1.93;46.09;99282.94;3323003;29;20506;-73
2022/01/02 15:19:21;;;;;;;1.35;1.25;;;;;;;1.92;46.02;99287.38;3341007;29;20432;-72
2022/01/02 15:21:02;;;;;;;1.60;1.27;;;;;;;1.90;45.85;99277.97;3347397;29;20109;-72
2022/01/02 15:22:42;;;;;;;1.30;1.20;;;;;;;1.91;45.79;99291.00;3349508;29;20041;-71
2022/01/02 15:24:23;;;;;;;6.63;1.63;;;;;;;1.90;45.72;99291.94;3349341;29;20052;-71
2022/01/02 15:26:05;;;;;;;1.45;1.00;;;;;;;1.87;45.60;99280.91;3348953;29;20049;-73
2022/01/02 15:27:47;;;;;;;1.70;1.30;;;;;;;1.88;45.62;99280.75;3349135;29;20540;-70
2022/01/02 15:29:28;;;;;;;1.20;1.00;;;;;;;1.89;45.75;99281.59;3347491;29;20045;-69
2022/01/02 15:31:12;;;;;;;5.82;1.23;;;;;;;1.89;45.46;99277.16;3348780;29;20042;-69
2022/01/02 15:32:52;;;;;;;1.67;1.33;;;;;;;1.85;45.47;99265.28;3340002;29;20053;-70
2022/01/02 15:34:34;;;;;;;1.50;1.40;;;;;;;1.87;45.41;99273.03;3336971;29;20398;-70
2022/01/02 15:36:15;;;;;;;3.33;1.80;;;;;;;1.89;45.30;99271.09;3337037;29;20101;-69
2022/01/02 15:37:55;;;;;;;1.33;1.23;;;;;;;1.88;45.31;99277.31;3337221;29;20506;-69
2022/01/02 15:39:37;;;;;;;1.50;1.33;;;;;;;1.87;45.69;99276.47;3340339;29;20052;-69
2022/01/02 15:41:18;;;;;;;2.72;1.58;;;;;;;1.86;45.69;99272.22;3323378;29;20042;-68
2022/01/02 15:42:59;;;;;;;1.05;0.95;;;;;;;1.87;45.73;99273.03;3334306;29;20049;-70
2022/01/02 15:44:40;;;;;;;1.42;1.08;;;;;;;1.85;45.70;99264.47;3335305;29;20494;-70
2022/01/02 15:46:22;;;;;;;;;;;;;;;1.95;45.77;99284.44;3337361;29;20568;-69
2022/01/02 15:48:03;;;;;;;1.38;1.17;;;;;;;1.88;45.33;99283.38;3336854;29;19924;-68
2022/01/02 15:49:45;;;;;;;1.95;1.27;;;;;;;1.83;45.41;99276.91;3336477;29;20144;-70
2022/01/02 15:51:29;;;;;;;1.25;1.15;;;;;;;1.83;45.39;99271.66;3336908;29;20034;-69
2022/01/02 15:53:10;;;;;;;4.47;2.45;;;;;;;1.82;45.56;99275.28;3337004;29;20050;-70
2022/01/02 15:54:52;;;;;;;1.65;1.30;;;;;;;1.79;45.59;99276.41;3337105;29;20658;-69
2022/01/02 15:56:33;;;;;;;;;;;;;;;1.88;45.54;99280.75;3337346;29;20409;-67
2022/01/02 15:58:13;;;;;;;1.92;1.42;;;;;;;1.82;45.68;99291.88;3337090;29;19924;-71
2022/01/02 15:59:54;;;;;;;2.00;1.10;;;;;;;1.80;45.54;99278.03;3336784;29;20046;-71
2022/01/02 16:01:35;;;;;;;2.83;1.20;;;;;;;1.79;45.55;99293.97;3337060;29;20387;-69
2022/01/02 16:03:17;;;;;;;1.35;1.25;;;;;;;1.80;45.80;99285.09;3337144;29;20165;-70
2022/01/02 16:04:59;;;;;;;1.15;1.05;;;;;;;1.78;45.87;99281.78;3339701;29;20106;-69
2022/01/02 16:06:40;;;;;;;1.52;1.33;;;;;;;1.78;45.94;99282.63;3336906;29;20067;-70
2022/01/02 16:08:23;;;;;;;2.17;1.42;;;;;;;1.78;46.02;99268.66;3337250;29;20606;-70
2022/01/02 16:10:04;;;;;;;1.20;0.95;;;;;;;1.77;46.09;99272.28;3344914;29;20136;-69
2022/01/02 16:11:45;;;;;;;1.67;1.37;;;;;;;1.77;46.07;99272.28;3349448;29;20053;-69
2022/01/02 16:13:26;;;;;;;1.30;0.90;;;;;;;1.76;45.99;99268.81;3349138;29;20404;-69
2022/01/02 16:15:08;;;;;;;3.53;1.20;;;;;;;1.77;45.82;99267.84;3335243;29;20049;-69
2022/01/02 16:16:50;;;;;;;2.53;1.15;;;;;;;1.80;46.04;99266.72;3334184;29;20520;-69
2022/01/02 16:18:32;;;;;;;2.30;1.10;;;;;;;1.78;45.61;99261.59;3336908;29;20042;-69
2022/01/02 16:20:15;;;;;;;3.85;1.48;;;;;;;1.80;45.68;99269.34;3336546;29;20539;-68
2022/01/02 16:21:57;;;;;;;2.75;1.17;;;;;;;1.80;45.95;99264.09;3347970;29;20049;-69